sensor_id;sensor_type;location;lat;lon;timestamp;P1;durP1;ratioP1;P2;durP2;ratioP2
36817;SDS011;22761;51.542;16.450;2023-12-07T00:01:22;149.90;;;79.60;;
36817;SDS011;22761;51.542;16.450;2023-12-07T00:03:50;141.40;;;77.00;;
36817;SDS011;22761;51.542;16.450;2023-12-07T00:06:19;138.80;;;75.20;;
36817;SDS011;22761;51.542;16.450;2023-12-07T00:08:47;138.00;;;75.80;;
36817;SDS011;22761;51.542;16.450;2023-12-07T00:11:15;148.40;;;78.40;;
36817;SDS011;22761;51.542;16.450;2023-12-07T00:13:44;145.00;;;75.80;;
36817;SDS011;22761;51.542;16.450;2023-12-07T00:16:12;136.80;;;75.10;;
36817;SDS011;22761;51.542;16.450;2023-12-07T00:18:40;139.50;;;75.80;;
36817;SDS011;22761;51.542;16.450;2023-12-07T00:21:08;138.30;;;74.60;;
36817;SDS011;22761;51.542;16.450;2023-12-07T00:23:37;139.90;;;75.90;;
36817;SDS011;22761;51.542;16.450;2023-12-07T00:26:06;143.60;;;75.50;;
36817;SDS011;22761;51.542;16.450;2023-12-07T00:28:34;141.20;;;76.90;;
36817;SDS011;22761;51.542;16.450;2023-12-07T00:31:02;140.90;;;75.90;;
36817;SDS011;22761;51.542;16.450;2023-12-07T00:33:31;146.40;;;79.20;;
36817;SDS011;22761;51.542;16.450;2023-12-07T00:35:59;140.70;;;76.30;;
36817;SDS011;22761;51.542;16.450;2023-12-07T00:38:27;144.10;;;75.60;;
36817;SDS011;22761;51.542;16.450;2023-12-07T00:40:55;143.40;;;77.30;;
36817;SDS011;22761;51.542;16.450;2023-12-07T00:43:23;144.10;;;76.70;;
36817;SDS011;22761;51.542;16.450;2023-12-07T00:45:51;150.10;;;76.90;;
36817;SDS011;22761;51.542;16.450;2023-12-07T00:48:20;141.00;;;77.30;;
36817;SDS011;22761;51.542;16.450;2023-12-07T00:50:48;150.60;;;76.70;;
36817;SDS011;22761;51.542;16.450;2023-12-07T00:53:16;139.00;;;75.20;;
36817;SDS011;22761;51.542;16.450;2023-12-07T00:55:44;148.30;;;78.30;;
36817;SDS011;22761;51.542;16.450;2023-12-07T00:58:12;139.20;;;75.10;;
36817;SDS011;22761;51.542;16.450;2023-12-07T01:00:42;145.50;;;76.50;;
36817;SDS011;22761;51.542;16.450;2023-12-07T01:03:10;142.70;;;76.50;;
36817;SDS011;22761;51.542;16.450;2023-12-07T01:05:39;145.50;;;76.20;;
36817;SDS011;22761;51.542;16.450;2023-12-07T01:08:07;148.40;;;77.40;;
36817;SDS011;22761;51.542;16.450;2023-12-07T01:10:35;143.00;;;75.60;;
36817;SDS011;22761;51.542;16.450;2023-12-07T01:13:03;140.70;;;77.50;;
36817;SDS011;22761;51.542;16.450;2023-12-07T01:15:32;142.30;;;77.30;;
36817;SDS011;22761;51.542;16.450;2023-12-07T01:18:00;145.90;;;76.80;;
36817;SDS011;22761;51.542;16.450;2023-12-07T01:20:28;148.30;;;79.60;;
36817;SDS011;22761;51.542;16.450;2023-12-07T01:22:56;138.20;;;76.00;;
36817;SDS011;22761;51.542;16.450;2023-12-07T01:25:24;138.50;;;75.60;;
36817;SDS011;22761;51.542;16.450;2023-12-07T01:27:53;137.60;;;76.00;;
36817;SDS011;22761;51.542;16.450;2023-12-07T01:30:21;142.00;;;74.30;;
36817;SDS011;22761;51.542;16.450;2023-12-07T01:32:50;135.60;;;73.40;;
36817;SDS011;22761;51.542;16.450;2023-12-07T01:35:18;142.20;;;76.40;;
36817;SDS011;22761;51.542;16.450;2023-12-07T01:37:46;146.30;;;76.60;;
36817;SDS011;22761;51.542;16.450;2023-12-07T01:40:16;142.30;;;76.10;;
36817;SDS011;22761;51.542;16.450;2023-12-07T01:42:50;146.00;;;75.50;;
36817;SDS011;22761;51.542;16.450;2023-12-07T01:45:19;134.10;;;72.70;;
36817;SDS011;22761;51.542;16.450;2023-12-07T01:47:49;133.40;;;75.00;;
36817;SDS011;22761;51.542;16.450;2023-12-07T01:50:18;142.60;;;73.60;;
36817;SDS011;22761;51.542;16.450;2023-12-07T01:52:54;138.10;;;73.00;;
36817;SDS011;22761;51.542;16.450;2023-12-07T01:55:25;143.60;;;73.60;;
36817;SDS011;22761;51.542;16.450;2023-12-07T01:57:54;136.60;;;74.60;;
36817;SDS011;22761;51.542;16.450;2023-12-07T02:00:22;143.90;;;74.50;;
36817;SDS011;22761;51.542;16.450;2023-12-07T02:02:51;145.00;;;76.00;;
36817;SDS011;22761;51.542;16.450;2023-12-07T02:05:19;135.90;;;74.50;;
36817;SDS011;22761;51.542;16.450;2023-12-07T02:07:48;140.80;;;74.80;;
36817;SDS011;22761;51.542;16.450;2023-12-07T02:10:16;142.40;;;74.90;;
36817;SDS011;22761;51.542;16.450;2023-12-07T02:12:47;144.60;;;73.10;;
36817;SDS011;22761;51.542;16.450;2023-12-07T02:15:16;142.90;;;75.60;;
36817;SDS011;22761;51.542;16.450;2023-12-07T02:20:29;138.60;;;70.40;;
36817;SDS011;22761;51.542;16.450;2023-12-07T02:23:00;139.70;;;75.20;;
36817;SDS011;22761;51.542;16.450;2023-12-07T02:25:37;147.30;;;75.90;;
36817;SDS011;22761;51.542;16.450;2023-12-07T02:28:20;142.60;;;75.10;;
36817;SDS011;22761;51.542;16.450;2023-12-07T02:30:48;139.50;;;74.00;;
36817;SDS011;22761;51.542;16.450;2023-12-07T02:33:16;144.00;;;75.20;;
36817;SDS011;22761;51.542;16.450;2023-12-07T02:35:45;142.80;;;75.50;;
36817;SDS011;22761;51.542;16.450;2023-12-07T02:38:13;141.90;;;75.50;;
36817;SDS011;22761;51.542;16.450;2023-12-07T02:40:41;147.50;;;75.70;;
36817;SDS011;22761;51.542;16.450;2023-12-07T02:43:11;148.20;;;76.70;;
36817;SDS011;22761;51.542;16.450;2023-12-07T02:45:40;146.80;;;76.20;;
36817;SDS011;22761;51.542;16.450;2023-12-07T02:48:08;137.70;;;74.00;;
36817;SDS011;22761;51.542;16.450;2023-12-07T02:50:36;145.80;;;73.50;;
36817;SDS011;22761;51.542;16.450;2023-12-07T02:53:04;131.30;;;71.70;;
36817;SDS011;22761;51.542;16.450;2023-12-07T02:55:33;139.50;;;73.40;;
36817;SDS011;22761;51.542;16.450;2023-12-07T02:58:01;139.80;;;72.30;;
36817;SDS011;22761;51.542;16.450;2023-12-07T03:00:30;134.80;;;72.30;;
36817;SDS011;22761;51.542;16.450;2023-12-07T03:02:58;133.20;;;71.40;;
36817;SDS011;22761;51.542;16.450;2023-12-07T03:05:26;133.20;;;71.50;;
36817;SDS011;22761;51.542;16.450;2023-12-07T03:07:54;133.90;;;71.80;;
36817;SDS011;22761;51.542;16.450;2023-12-07T03:10:23;138.30;;;72.50;;
36817;SDS011;22761;51.542;16.450;2023-12-07T03:12:51;138.50;;;73.40;;
36817;SDS011;22761;51.542;16.450;2023-12-07T03:15:19;135.10;;;73.90;;
36817;SDS011;22761;51.542;16.450;2023-12-07T03:17:48;139.10;;;72.50;;
36817;SDS011;22761;51.542;16.450;2023-12-07T03:20:17;137.30;;;72.20;;
36817;SDS011;22761;51.542;16.450;2023-12-07T03:22:45;142.10;;;72.50;;
36817;SDS011;22761;51.542;16.450;2023-12-07T03:25:14;138.60;;;73.50;;
36817;SDS011;22761;51.542;16.450;2023-12-07T03:27:42;134.10;;;70.80;;
36817;SDS011;22761;51.542;16.450;2023-12-07T03:30:10;140.00;;;72.20;;
36817;SDS011;22761;51.542;16.450;2023-12-07T03:32:39;138.00;;;72.40;;
36817;SDS011;22761;51.542;16.450;2023-12-07T03:35:07;139.00;;;74.50;;
36817;SDS011;22761;51.542;16.450;2023-12-07T03:37:35;128.50;;;71.20;;
36817;SDS011;22761;51.542;16.450;2023-12-07T03:40:04;140.70;;;74.70;;
36817;SDS011;22761;51.542;16.450;2023-12-07T03:42:33;145.00;;;72.60;;
36817;SDS011;22761;51.542;16.450;2023-12-07T03:45:21;126.90;;;68.60;;
36817;SDS011;22761;51.542;16.450;2023-12-07T03:47:50;133.50;;;71.90;;
36817;SDS011;22761;51.542;16.450;2023-12-07T03:50:18;143.30;;;73.60;;
36817;SDS011;22761;51.542;16.450;2023-12-07T03:52:46;147.20;;;78.00;;
36817;SDS011;22761;51.542;16.450;2023-12-07T03:55:14;152.00;;;77.70;;
36817;SDS011;22761;51.542;16.450;2023-12-07T03:57:43;155.40;;;77.90;;
36817;SDS011;22761;51.542;16.450;2023-12-07T04:00:11;151.40;;;79.60;;
36817;SDS011;22761;51.542;16.450;2023-12-07T04:02:40;146.40;;;78.30;;
36817;SDS011;22761;51.542;16.450;2023-12-07T04:05:08;149.60;;;78.70;;
36817;SDS011;22761;51.542;16.450;2023-12-07T04:07:36;153.10;;;77.10;;
36817;SDS011;22761;51.542;16.450;2023-12-07T04:10:05;151.20;;;76.70;;
36817;SDS011;22761;51.542;16.450;2023-12-07T04:12:34;152.30;;;78.10;;
36817;SDS011;22761;51.542;16.450;2023-12-07T04:15:02;153.70;;;80.40;;
36817;SDS011;22761;51.542;16.450;2023-12-07T04:17:30;156.10;;;79.50;;
36817;SDS011;22761;51.542;16.450;2023-12-07T04:19:59;149.00;;;79.40;;
36817;SDS011;22761;51.542;16.450;2023-12-07T04:22:27;145.20;;;79.80;;
36817;SDS011;22761;51.542;16.450;2023-12-07T04:24:56;146.50;;;78.10;;
36817;SDS011;22761;51.542;16.450;2023-12-07T04:27:25;149.10;;;76.80;;
36817;SDS011;22761;51.542;16.450;2023-12-07T04:29:53;151.70;;;79.20;;
36817;SDS011;22761;51.542;16.450;2023-12-07T04:32:21;142.10;;;74.00;;
36817;SDS011;22761;51.542;16.450;2023-12-07T04:34:50;149.70;;;81.90;;
36817;SDS011;22761;51.542;16.450;2023-12-07T04:37:19;153.40;;;80.40;;
36817;SDS011;22761;51.542;16.450;2023-12-07T04:39:47;151.30;;;79.70;;
36817;SDS011;22761;51.542;16.450;2023-12-07T04:42:15;152.70;;;81.00;;
36817;SDS011;22761;51.542;16.450;2023-12-07T04:44:43;143.90;;;76.20;;
36817;SDS011;22761;51.542;16.450;2023-12-07T04:47:11;150.50;;;78.00;;
36817;SDS011;22761;51.542;16.450;2023-12-07T04:49:39;153.30;;;77.90;;
36817;SDS011;22761;51.542;16.450;2023-12-07T04:52:07;144.80;;;76.50;;
36817;SDS011;22761;51.542;16.450;2023-12-07T04:54:36;152.80;;;78.40;;
36817;SDS011;22761;51.542;16.450;2023-12-07T04:57:04;151.50;;;77.70;;
36817;SDS011;22761;51.542;16.450;2023-12-07T04:59:32;152.70;;;80.60;;
36817;SDS011;22761;51.542;16.450;2023-12-07T05:02:01;153.00;;;77.10;;
36817;SDS011;22761;51.542;16.450;2023-12-07T05:04:30;146.20;;;77.80;;
36817;SDS011;22761;51.542;16.450;2023-12-07T05:06:58;150.90;;;80.90;;
36817;SDS011;22761;51.542;16.450;2023-12-07T05:09:27;139.00;;;76.20;;
36817;SDS011;22761;51.542;16.450;2023-12-07T05:11:58;153.70;;;79.20;;
36817;SDS011;22761;51.542;16.450;2023-12-07T05:14:27;141.40;;;79.30;;
36817;SDS011;22761;51.542;16.450;2023-12-07T05:16:55;149.40;;;76.10;;
36817;SDS011;22761;51.542;16.450;2023-12-07T05:19:24;155.70;;;77.80;;
36817;SDS011;22761;51.542;16.450;2023-12-07T05:21:53;144.90;;;77.70;;
36817;SDS011;22761;51.542;16.450;2023-12-07T05:24:21;157.60;;;81.90;;
36817;SDS011;22761;51.542;16.450;2023-12-07T05:26:50;160.40;;;82.50;;
36817;SDS011;22761;51.542;16.450;2023-12-07T05:29:18;148.90;;;80.90;;
36817;SDS011;22761;51.542;16.450;2023-12-07T05:31:48;150.50;;;80.40;;
36817;SDS011;22761;51.542;16.450;2023-12-07T05:34:18;160.50;;;82.90;;
36817;SDS011;22761;51.542;16.450;2023-12-07T05:36:46;167.70;;;85.90;;
36817;SDS011;22761;51.542;16.450;2023-12-07T05:39:15;169.60;;;90.20;;
36817;SDS011;22761;51.542;16.450;2023-12-07T05:41:45;178.40;;;90.70;;
36817;SDS011;22761;51.542;16.450;2023-12-07T05:44:14;171.50;;;89.00;;
36817;SDS011;22761;51.542;16.450;2023-12-07T05:46:49;184.80;;;92.90;;
36817;SDS011;22761;51.542;16.450;2023-12-07T05:49:18;213.30;;;97.70;;
36817;SDS011;22761;51.542;16.450;2023-12-07T05:51:46;213.90;;;100.90;;
36817;SDS011;22761;51.542;16.450;2023-12-07T05:54:14;212.90;;;99.20;;
36817;SDS011;22761;51.542;16.450;2023-12-07T05:56:42;204.80;;;100.30;;
36817;SDS011;22761;51.542;16.450;2023-12-07T05:59:11;219.60;;;101.10;;
36817;SDS011;22761;51.542;16.450;2023-12-07T06:01:39;225.90;;;100.90;;
36817;SDS011;22761;51.542;16.450;2023-12-07T06:04:08;220.60;;;101.20;;
36817;SDS011;22761;51.542;16.450;2023-12-07T06:06:38;238.10;;;105.30;;
36817;SDS011;22761;51.542;16.450;2023-12-07T06:09:06;221.40;;;102.70;;
36817;SDS011;22761;51.542;16.450;2023-12-07T06:11:36;225.00;;;100.40;;
36817;SDS011;22761;51.542;16.450;2023-12-07T06:14:04;221.00;;;101.60;;
36817;SDS011;22761;51.542;16.450;2023-12-07T06:16:34;228.10;;;102.80;;
36817;SDS011;22761;51.542;16.450;2023-12-07T06:19:03;224.80;;;101.70;;
36817;SDS011;22761;51.542;16.450;2023-12-07T06:21:32;218.10;;;102.20;;
36817;SDS011;22761;51.542;16.450;2023-12-07T06:24:01;214.40;;;100.20;;
36817;SDS011;22761;51.542;16.450;2023-12-07T06:26:29;218.40;;;100.90;;
36817;SDS011;22761;51.542;16.450;2023-12-07T06:28:57;203.80;;;92.90;;
36817;SDS011;22761;51.542;16.450;2023-12-07T06:31:26;211.40;;;99.90;;
36817;SDS011;22761;51.542;16.450;2023-12-07T06:33:54;206.50;;;96.70;;
36817;SDS011;22761;51.542;16.450;2023-12-07T06:36:23;214.40;;;100.40;;
36817;SDS011;22761;51.542;16.450;2023-12-07T06:38:52;209.00;;;97.90;;
36817;SDS011;22761;51.542;16.450;2023-12-07T06:41:22;209.50;;;96.50;;
36817;SDS011;22761;51.542;16.450;2023-12-07T06:43:51;203.30;;;95.60;;
36817;SDS011;22761;51.542;16.450;2023-12-07T06:48:49;211.70;;;94.80;;
36817;SDS011;22761;51.542;16.450;2023-12-07T06:51:18;212.20;;;97.70;;
36817;SDS011;22761;51.542;16.450;2023-12-07T06:53:46;227.70;;;101.30;;
36817;SDS011;22761;51.542;16.450;2023-12-07T06:56:14;208.40;;;99.50;;
36817;SDS011;22761;51.542;16.450;2023-12-07T06:58:43;201.30;;;94.80;;
36817;SDS011;22761;51.542;16.450;2023-12-07T07:01:11;201.60;;;93.60;;
36817;SDS011;22761;51.542;16.450;2023-12-07T07:03:40;184.50;;;90.90;;
36817;SDS011;22761;51.542;16.450;2023-12-07T07:06:09;195.90;;;90.40;;
36817;SDS011;22761;51.542;16.450;2023-12-07T07:08:37;202.30;;;94.70;;
36817;SDS011;22761;51.542;16.450;2023-12-07T07:11:14;197.00;;;91.60;;
36817;SDS011;22761;51.542;16.450;2023-12-07T07:13:46;193.90;;;90.20;;
36817;SDS011;22761;51.542;16.450;2023-12-07T07:16:14;179.40;;;89.50;;
36817;SDS011;22761;51.542;16.450;2023-12-07T07:18:42;187.60;;;88.60;;
36817;SDS011;22761;51.542;16.450;2023-12-07T07:21:10;192.70;;;89.90;;
36817;SDS011;22761;51.542;16.450;2023-12-07T07:23:38;189.90;;;90.50;;
36817;SDS011;22761;51.542;16.450;2023-12-07T07:26:07;189.70;;;89.30;;
36817;SDS011;22761;51.542;16.450;2023-12-07T07:28:36;199.20;;;92.00;;
36817;SDS011;22761;51.542;16.450;2023-12-07T07:31:04;211.80;;;102.20;;
36817;SDS011;22761;51.542;16.450;2023-12-07T07:33:33;223.50;;;102.30;;
36817;SDS011;22761;51.542;16.450;2023-12-07T07:36:01;211.10;;;95.80;;
36817;SDS011;22761;51.542;16.450;2023-12-07T07:38:29;209.40;;;98.20;;
36817;SDS011;22761;51.542;16.450;2023-12-07T07:40:57;229.40;;;107.50;;
36817;SDS011;22761;51.542;16.450;2023-12-07T07:43:25;295.50;;;127.50;;
36817;SDS011;22761;51.542;16.450;2023-12-07T07:45:54;237.60;;;111.50;;
36817;SDS011;22761;51.542;16.450;2023-12-07T07:48:22;220.20;;;102.60;;
36817;SDS011;22761;51.542;16.450;2023-12-07T07:50:50;203.20;;;98.50;;
36817;SDS011;22761;51.542;16.450;2023-12-07T07:53:19;214.30;;;97.90;;
36817;SDS011;22761;51.542;16.450;2023-12-07T07:55:47;218.90;;;102.20;;
36817;SDS011;22761;51.542;16.450;2023-12-07T07:58:15;226.70;;;102.00;;
36817;SDS011;22761;51.542;16.450;2023-12-07T08:00:43;226.80;;;102.90;;
36817;SDS011;22761;51.542;16.450;2023-12-07T08:03:14;210.80;;;97.10;;
36817;SDS011;22761;51.542;16.450;2023-12-07T08:05:42;202.50;;;91.60;;
36817;SDS011;22761;51.542;16.450;2023-12-07T08:08:10;196.40;;;90.60;;
36817;SDS011;22761;51.542;16.450;2023-12-07T08:10:39;197.60;;;89.00;;
36817;SDS011;22761;51.542;16.450;2023-12-07T08:13:22;198.60;;;87.80;;
36817;SDS011;22761;51.542;16.450;2023-12-07T08:15:51;194.30;;;91.40;;
36817;SDS011;22761;51.542;16.450;2023-12-07T08:18:24;195.10;;;90.30;;
36817;SDS011;22761;51.542;16.450;2023-12-07T08:20:54;198.50;;;93.50;;
36817;SDS011;22761;51.542;16.450;2023-12-07T08:23:22;195.40;;;93.90;;
36817;SDS011;22761;51.542;16.450;2023-12-07T08:25:50;212.60;;;98.50;;
36817;SDS011;22761;51.542;16.450;2023-12-07T08:28:19;204.00;;;97.40;;
36817;SDS011;22761;51.542;16.450;2023-12-07T08:30:48;201.60;;;95.20;;
36817;SDS011;22761;51.542;16.450;2023-12-07T08:33:16;201.60;;;91.10;;
36817;SDS011;22761;51.542;16.450;2023-12-07T08:35:45;206.20;;;94.30;;
36817;SDS011;22761;51.542;16.450;2023-12-07T08:38:13;198.10;;;92.10;;
36817;SDS011;22761;51.542;16.450;2023-12-07T08:40:41;199.40;;;93.20;;
36817;SDS011;22761;51.542;16.450;2023-12-07T08:43:10;209.50;;;92.30;;
36817;SDS011;22761;51.542;16.450;2023-12-07T08:45:39;208.90;;;93.30;;
36817;SDS011;22761;51.542;16.450;2023-12-07T08:48:07;189.50;;;87.70;;
36817;SDS011;22761;51.542;16.450;2023-12-07T08:50:35;213.90;;;94.20;;
36817;SDS011;22761;51.542;16.450;2023-12-07T08:53:04;231.70;;;104.20;;
36817;SDS011;22761;51.542;16.450;2023-12-07T08:55:33;232.80;;;104.00;;
36817;SDS011;22761;51.542;16.450;2023-12-07T08:58:01;256.30;;;109.50;;
36817;SDS011;22761;51.542;16.450;2023-12-07T09:00:32;243.50;;;110.10;;
36817;SDS011;22761;51.542;16.450;2023-12-07T09:03:01;227.90;;;101.80;;
36817;SDS011;22761;51.542;16.450;2023-12-07T09:05:31;235.10;;;105.40;;
36817;SDS011;22761;51.542;16.450;2023-12-07T09:07:59;215.40;;;98.60;;
36817;SDS011;22761;51.542;16.450;2023-12-07T09:10:27;194.20;;;89.80;;
36817;SDS011;22761;51.542;16.450;2023-12-07T09:12:56;191.60;;;90.30;;
36817;SDS011;22761;51.542;16.450;2023-12-07T09:15:24;177.60;;;83.30;;
36817;SDS011;22761;51.542;16.450;2023-12-07T09:17:53;178.10;;;83.50;;
36817;SDS011;22761;51.542;16.450;2023-12-07T09:20:22;181.90;;;84.70;;
36817;SDS011;22761;51.542;16.450;2023-12-07T09:22:50;162.60;;;82.00;;
36817;SDS011;22761;51.542;16.450;2023-12-07T09:25:19;175.10;;;80.80;;
36817;SDS011;22761;51.542;16.450;2023-12-07T09:27:47;168.80;;;80.00;;
36817;SDS011;22761;51.542;16.450;2023-12-07T09:30:16;171.20;;;79.80;;
36817;SDS011;22761;51.542;16.450;2023-12-07T09:32:44;169.30;;;79.40;;
36817;SDS011;22761;51.542;16.450;2023-12-07T09:35:13;176.10;;;80.30;;
36817;SDS011;22761;51.542;16.450;2023-12-07T09:37:48;170.30;;;80.70;;
36817;SDS011;22761;51.542;16.450;2023-12-07T09:40:18;173.60;;;80.00;;
36817;SDS011;22761;51.542;16.450;2023-12-07T09:42:49;169.40;;;84.20;;
36817;SDS011;22761;51.542;16.450;2023-12-07T09:45:18;175.00;;;80.50;;
36817;SDS011;22761;51.542;16.450;2023-12-07T09:47:49;170.20;;;84.00;;
36817;SDS011;22761;51.542;16.450;2023-12-07T09:50:19;164.00;;;81.50;;
36817;SDS011;22761;51.542;16.450;2023-12-07T09:55:31;166.60;;;77.60;;
36817;SDS011;22761;51.542;16.450;2023-12-07T09:58:05;153.20;;;72.80;;
36817;SDS011;22761;51.542;16.450;2023-12-07T10:00:36;173.90;;;80.30;;
36817;SDS011;22761;51.542;16.450;2023-12-07T10:03:06;165.60;;;78.00;;
36817;SDS011;22761;51.542;16.450;2023-12-07T10:05:58;162.00;;;79.90;;
36817;SDS011;22761;51.542;16.450;2023-12-07T10:08:34;149.90;;;72.80;;
36817;SDS011;22761;51.542;16.450;2023-12-07T10:11:09;150.00;;;74.50;;
36817;SDS011;22761;51.542;16.450;2023-12-07T10:13:40;153.20;;;75.10;;
36817;SDS011;22761;51.542;16.450;2023-12-07T10:16:11;173.90;;;83.40;;
36817;SDS011;22761;51.542;16.450;2023-12-07T10:18:41;157.30;;;76.90;;
36817;SDS011;22761;51.542;16.450;2023-12-07T10:21:12;159.60;;;79.90;;
36817;SDS011;22761;51.542;16.450;2023-12-07T10:23:42;157.40;;;73.70;;
36817;SDS011;22761;51.542;16.450;2023-12-07T10:26:17;144.50;;;72.80;;
36817;SDS011;22761;51.542;16.450;2023-12-07T10:28:49;158.00;;;74.20;;
36817;SDS011;22761;51.542;16.450;2023-12-07T10:31:22;160.90;;;72.20;;
36817;SDS011;22761;51.542;16.450;2023-12-07T10:33:51;151.90;;;70.80;;
36817;SDS011;22761;51.542;16.450;2023-12-07T10:36:20;149.10;;;71.30;;
36817;SDS011;22761;51.542;16.450;2023-12-07T10:38:49;156.50;;;76.50;;
36817;SDS011;22761;51.542;16.450;2023-12-07T10:41:20;155.60;;;75.40;;
36817;SDS011;22761;51.542;16.450;2023-12-07T10:43:51;164.70;;;80.00;;
36817;SDS011;22761;51.542;16.450;2023-12-07T10:46:21;157.50;;;76.20;;
36817;SDS011;22761;51.542;16.450;2023-12-07T10:48:54;162.80;;;77.60;;
36817;SDS011;22761;51.542;16.450;2023-12-07T10:51:28;150.40;;;76.50;;
36817;SDS011;22761;51.542;16.450;2023-12-07T10:53:59;158.20;;;78.60;;
36817;SDS011;22761;51.542;16.450;2023-12-07T10:56:43;161.80;;;78.60;;
36817;SDS011;22761;51.542;16.450;2023-12-07T10:59:12;160.20;;;79.30;;
36817;SDS011;22761;51.542;16.450;2023-12-07T11:01:56;169.30;;;79.40;;
36817;SDS011;22761;51.542;16.450;2023-12-07T11:04:25;159.80;;;76.90;;
36817;SDS011;22761;51.542;16.450;2023-12-07T11:06:56;154.00;;;75.10;;
36817;SDS011;22761;51.542;16.450;2023-12-07T11:09:30;149.00;;;74.30;;
36817;SDS011;22761;51.542;16.450;2023-12-07T11:12:07;148.00;;;73.60;;
36817;SDS011;22761;51.542;16.450;2023-12-07T11:14:38;159.90;;;78.30;;
36817;SDS011;22761;51.542;16.450;2023-12-07T11:17:07;158.60;;;74.40;;
36817;SDS011;22761;51.542;16.450;2023-12-07T11:22:06;145.90;;;70.70;;
36817;SDS011;22761;51.542;16.450;2023-12-07T11:24:35;147.00;;;71.80;;
36817;SDS011;22761;51.542;16.450;2023-12-07T11:27:06;138.00;;;69.00;;
36817;SDS011;22761;51.542;16.450;2023-12-07T11:29:34;135.50;;;63.30;;
36817;SDS011;22761;51.542;16.450;2023-12-07T11:32:03;138.10;;;70.30;;
36817;SDS011;22761;51.542;16.450;2023-12-07T11:34:44;151.90;;;73.30;;
36817;SDS011;22761;51.542;16.450;2023-12-07T11:37:16;152.80;;;72.80;;
36817;SDS011;22761;51.542;16.450;2023-12-07T11:39:45;150.20;;;72.20;;
36817;SDS011;22761;51.542;16.450;2023-12-07T11:42:17;121.20;;;63.40;;
36817;SDS011;22761;51.542;16.450;2023-12-07T11:44:48;151.80;;;71.60;;
36817;SDS011;22761;51.542;16.450;2023-12-07T11:47:18;136.80;;;66.10;;
36817;SDS011;22761;51.542;16.450;2023-12-07T11:49:47;136.10;;;66.50;;
36817;SDS011;22761;51.542;16.450;2023-12-07T11:52:16;142.30;;;68.80;;
36817;SDS011;22761;51.542;16.450;2023-12-07T11:54:49;142.90;;;69.10;;
36817;SDS011;22761;51.542;16.450;2023-12-07T11:57:18;140.50;;;70.60;;
36817;SDS011;22761;51.542;16.450;2023-12-07T11:59:46;135.10;;;69.60;;
36817;SDS011;22761;51.542;16.450;2023-12-07T12:02:17;133.50;;;68.80;;
36817;SDS011;22761;51.542;16.450;2023-12-07T12:04:45;130.40;;;66.40;;
36817;SDS011;22761;51.542;16.450;2023-12-07T12:07:14;118.90;;;61.00;;
36817;SDS011;22761;51.542;16.450;2023-12-07T12:09:42;114.60;;;58.20;;
36817;SDS011;22761;51.542;16.450;2023-12-07T12:12:10;97.60;;;50.90;;
36817;SDS011;22761;51.542;16.450;2023-12-07T12:14:38;97.80;;;49.60;;
36817;SDS011;22761;51.542;16.450;2023-12-07T12:17:07;90.40;;;49.00;;
36817;SDS011;22761;51.542;16.450;2023-12-07T12:19:35;97.30;;;47.70;;
36817;SDS011;22761;51.542;16.450;2023-12-07T12:22:05;94.80;;;46.70;;
36817;SDS011;22761;51.542;16.450;2023-12-07T12:27:04;84.80;;;45.50;;
36817;SDS011;22761;51.542;16.450;2023-12-07T12:29:33;94.30;;;48.70;;
36817;SDS011;22761;51.542;16.450;2023-12-07T12:32:03;97.20;;;51.20;;
36817;SDS011;22761;51.542;16.450;2023-12-07T12:34:34;93.20;;;50.00;;
36817;SDS011;22761;51.542;16.450;2023-12-07T12:37:03;99.00;;;50.20;;
36817;SDS011;22761;51.542;16.450;2023-12-07T12:39:34;104.80;;;51.80;;
36817;SDS011;22761;51.542;16.450;2023-12-07T12:42:03;98.10;;;49.40;;
36817;SDS011;22761;51.542;16.450;2023-12-07T12:44:33;105.80;;;54.50;;
36817;SDS011;22761;51.542;16.450;2023-12-07T12:47:05;108.70;;;53.60;;
36817;SDS011;22761;51.542;16.450;2023-12-07T12:49:38;104.50;;;51.20;;
36817;SDS011;22761;51.542;16.450;2023-12-07T12:52:14;109.90;;;53.90;;
36817;SDS011;22761;51.542;16.450;2023-12-07T12:54:48;120.20;;;62.00;;
36817;SDS011;22761;51.542;16.450;2023-12-07T12:57:17;164.10;;;81.10;;
36817;SDS011;22761;51.542;16.450;2023-12-07T12:59:47;134.30;;;68.20;;
36817;SDS011;22761;51.542;16.450;2023-12-07T13:02:16;141.50;;;68.20;;
36817;SDS011;22761;51.542;16.450;2023-12-07T13:04:45;142.00;;;70.80;;
36817;SDS011;22761;51.542;16.450;2023-12-07T13:07:15;133.90;;;65.90;;
36817;SDS011;22761;51.542;16.450;2023-12-07T13:09:43;136.80;;;66.10;;
36817;SDS011;22761;51.542;16.450;2023-12-07T13:12:11;131.80;;;63.00;;
36817;SDS011;22761;51.542;16.450;2023-12-07T13:14:39;136.70;;;65.10;;
36817;SDS011;22761;51.542;16.450;2023-12-07T13:17:16;134.40;;;65.00;;
36817;SDS011;22761;51.542;16.450;2023-12-07T13:19:44;137.00;;;65.00;;
36817;SDS011;22761;51.542;16.450;2023-12-07T13:22:13;136.50;;;68.00;;
36817;SDS011;22761;51.542;16.450;2023-12-07T13:24:41;132.20;;;64.80;;
36817;SDS011;22761;51.542;16.450;2023-12-07T13:27:09;156.90;;;74.50;;
36817;SDS011;22761;51.542;16.450;2023-12-07T13:29:37;157.30;;;74.10;;
36817;SDS011;22761;51.542;16.450;2023-12-07T13:32:05;142.40;;;69.60;;
36817;SDS011;22761;51.542;16.450;2023-12-07T13:34:34;134.00;;;66.00;;
36817;SDS011;22761;51.542;16.450;2023-12-07T13:37:02;130.20;;;66.70;;
36817;SDS011;22761;51.542;16.450;2023-12-07T13:39:31;145.20;;;72.30;;
36817;SDS011;22761;51.542;16.450;2023-12-07T13:41:59;145.30;;;70.50;;
36817;SDS011;22761;51.542;16.450;2023-12-07T13:44:32;153.40;;;74.60;;
36817;SDS011;22761;51.542;16.450;2023-12-07T13:47:01;146.20;;;72.40;;
36817;SDS011;22761;51.542;16.450;2023-12-07T13:49:29;142.00;;;71.10;;
36817;SDS011;22761;51.542;16.450;2023-12-07T13:52:02;138.20;;;69.40;;
36817;SDS011;22761;51.542;16.450;2023-12-07T13:54:35;144.40;;;69.90;;
36817;SDS011;22761;51.542;16.450;2023-12-07T13:57:06;142.80;;;68.80;;
36817;SDS011;22761;51.542;16.450;2023-12-07T13:59:37;137.90;;;65.30;;
36817;SDS011;22761;51.542;16.450;2023-12-07T14:02:06;142.10;;;66.90;;
36817;SDS011;22761;51.542;16.450;2023-12-07T14:04:34;155.90;;;73.10;;
36817;SDS011;22761;51.542;16.450;2023-12-07T14:07:13;181.80;;;81.90;;
36817;SDS011;22761;51.542;16.450;2023-12-07T14:09:43;175.80;;;84.10;;
36817;SDS011;22761;51.542;16.450;2023-12-07T14:12:25;171.60;;;81.30;;
36817;SDS011;22761;51.542;16.450;2023-12-07T14:14:57;177.80;;;82.10;;
36817;SDS011;22761;51.542;16.450;2023-12-07T14:17:25;171.30;;;82.40;;
36817;SDS011;22761;51.542;16.450;2023-12-07T14:19:56;170.70;;;83.60;;
36817;SDS011;22761;51.542;16.450;2023-12-07T14:22:44;159.70;;;79.60;;